CheckWX is a tool to help pilots better visualize weather data.  It is not intended as a substitute for an official pre-flight weather briefing.

07:00:32 UTC

LQTZ TAF
Tuzla International Airport
Tuzla, Bosnia and Herzegovina
TAF LQTZ 210500Z 2106/2206 09006KT CAVOK TX21/2112Z TN03/2204Z

Sep-21@
06:00 UTC

Sep-21 @ 06:00 UTC

Sep-22@
06:00 UTC

Sep-22 @ 06:00 UTC

TAF LQTZ 210500Z 2106/2206 09006KT CAVOK TX21/2112Z TN03/2204Z
Wind
  • 090° at 6 KTS
Cloud Levels
  • No significant clouds